Main page


Airports :

Turin, Italy

Bric della Croce

latitude: 45-02N, longitude: 007-44E, elevation: 709 m

Current weather observation

The report was made 40 minutes ago, at 21:55 UTC
Wind 2 kt from the South
Temperature 7°C
Humidity 31%
Pressure 999 hPa
Visibility 10 km or more
no clouds below 1500 m and no cumulonimbus

METAR: LIMK 232155Z 18002KT CAVOK 07/M09 Q0999 RMK SKC VAL NIL VIS MIN 9999

Time: 23:35 (22:35 UTC)

TAF: missing

Weather observations and forecasts of more than 4000 airports (METAR and TAF reports).

The available stations are represented by yellow and red dots on the map.

Hover mouse over dot to see the name of the station.

Then click to see weather observations and forecasts.

To change the map : click on the green buttons with a black cross to zoom in, on the green button with a dash to zoom out, or on the green arrows for adjacent maps.